createdAt,value
2019-03-04T00:00:12.312Z,12.90
2019-03-04T00:01:12.279Z,12.91
2019-03-04T00:02:12.276Z,12.94
2019-03-04T00:03:12.271Z,12.91
2019-03-04T00:04:12.246Z,12.93
2019-03-04T00:05:12.230Z,12.91
2019-03-04T00:06:12.241Z,12.83
2019-03-04T00:07:12.233Z,12.93
2019-03-04T00:08:12.202Z,12.86
2019-03-04T00:09:12.191Z,12.82
2019-03-04T00:10:12.176Z,12.83
2019-03-04T00:11:12.183Z,12.91
2019-03-04T00:12:12.181Z,12.86
2019-03-04T00:13:12.152Z,12.86
2019-03-04T00:14:12.133Z,12.91
2019-03-04T00:15:12.130Z,12.91
2019-03-04T00:16:12.108Z,12.94
2019-03-04T00:17:12.112Z,12.86
2019-03-04T00:18:12.085Z,12.80
2019-03-04T00:19:12.073Z,12.82
2019-03-04T00:20:12.092Z,12.87
2019-03-04T00:21:12.049Z,12.82
2019-03-04T00:22:12.057Z,12.83
2019-03-04T00:23:12.028Z,12.80
2019-03-04T00:24:12.018Z,12.85
2019-03-04T00:25:12.003Z,12.90
2019-03-04T00:26:12.005Z,12.94
2019-03-04T00:27:11.983Z,12.91
2019-03-04T00:28:11.983Z,12.93
2019-03-04T00:29:11.958Z,12.94
2019-03-04T00:30:11.951Z,12.93
2019-03-04T00:31:11.953Z,12.94
2019-03-04T00:32:11.926Z,12.95
2019-03-04T00:33:11.917Z,13.03
2019-03-04T00:34:11.919Z,12.95
2019-03-04T00:35:11.895Z,12.95
2019-03-04T00:36:11.880Z,12.91
2019-03-04T00:37:11.887Z,12.93
2019-03-04T00:38:11.857Z,12.93
2019-03-04T00:39:11.843Z,12.93
2019-03-04T00:40:11.868Z,12.93
2019-03-04T00:41:11.824Z,12.90
2019-03-04T00:42:11.814Z,12.91
2019-03-04T00:43:11.816Z,12.94
2019-03-04T00:44:11.793Z,12.85
2019-03-04T00:45:11.780Z,12.83
2019-03-04T00:46:11.786Z,12.87
2019-03-04T00:47:11.754Z,12.80
2019-03-04T00:48:20.656Z,12.86
2019-03-04T00:49:11.778Z,12.85
2019-03-04T00:50:11.809Z,12.90
2019-03-04T00:51:11.911Z,12.90
2019-03-04T00:52:11.742Z,12.90
2019-03-04T00:53:11.710Z,12.93
2019-03-04T00:54:11.680Z,12.93
2019-03-04T00:55:11.694Z,12.93
2019-03-04T00:56:11.659Z,12.91
2019-03-04T00:57:11.670Z,12.94
2019-03-04T00:58:11.633Z,12.98
2019-03-04T00:59:11.662Z,12.98
2019-03-04T01:00:11.605Z,12.93
2019-03-04T01:01:11.599Z,12.87
2019-03-04T01:02:11.586Z,12.93
2019-03-04T01:03:11.618Z,12.94
2019-03-04T01:04:11.618Z,12.94
2019-03-04T01:05:11.550Z,12.93
2019-03-04T01:06:11.559Z,12.95
2019-03-04T01:07:11.531Z,12.80
2019-03-04T01:08:11.522Z,12.85
2019-03-04T01:09:11.535Z,12.87
2019-03-04T01:10:11.497Z,12.87
2019-03-04T01:11:11.555Z,12.85
2019-03-04T01:12:11.476Z,12.87
2019-03-04T01:13:11.466Z,12.86
2019-03-04T01:14:11.461Z,12.90
2019-03-04T01:15:11.436Z,12.91
2019-03-04T01:16:11.471Z,12.94
2019-03-04T01:17:11.415Z,13.01
2019-03-04T01:18:11.459Z,12.94
2019-03-04T01:19:11.399Z,12.98
2019-03-04T01:20:11.382Z,12.95
2019-03-04T01:21:11.389Z,13.00
2019-03-04T01:22:11.358Z,12.95
2019-03-04T01:23:11.351Z,13.00
2019-03-04T01:24:11.370Z,13.04
2019-03-04T01:25:11.326Z,12.97
2019-03-04T01:26:11.315Z,13.00
2019-03-04T01:27:11.369Z,13.01
2019-03-04T01:28:11.315Z,12.98
2019-03-04T01:29:11.281Z,12.97
2019-03-04T01:30:11.314Z,13.00
2019-03-04T01:31:11.268Z,13.00
2019-03-04T01:32:11.289Z,12.97
2019-03-04T01:33:11.239Z,13.09
2019-03-04T01:34:11.224Z,13.03
2019-03-04T01:35:11.210Z,12.95
2019-03-04T01:36:11.214Z,13.01
2019-03-04T01:37:11.190Z,12.95
2019-03-04T01:38:11.244Z,12.93
2019-03-04T01:39:11.168Z,12.94
2019-03-04T01:40:11.174Z,12.94
2019-03-04T01:41:11.150Z,12.97
2019-03-04T01:42:11.138Z,12.97
2019-03-04T01:43:11.125Z,13.00
2019-03-04T01:44:11.129Z,13.04
2019-03-04T01:45:11.140Z,13.04
2019-03-04T01:46:11.119Z,13.01
2019-03-04T01:47:11.079Z,12.93
2019-03-04T01:48:11.070Z,12.94
2019-03-04T01:49:11.118Z,12.95
2019-03-04T01:50:11.059Z,12.95
2019-03-04T01:51:11.034Z,12.95
2019-03-04T01:52:11.021Z,12.98
2019-03-04T01:53:11.020Z,12.95
2019-03-04T01:54:10.997Z,12.95
2019-03-04T01:55:10.985Z,12.95
2019-03-04T01:56:10.985Z,12.93
2019-03-04T01:57:10.992Z,12.95
2019-03-04T01:58:10.964Z,12.94
2019-03-04T01:59:10.945Z,12.94
2019-03-04T02:00:10.924Z,13.03
2019-03-04T02:01:10.920Z,12.93
2019-03-04T02:02:10.922Z,12.97
2019-03-04T02:03:10.900Z,12.94
2019-03-04T02:04:10.898Z,12.87
2019-03-04T02:05:10.874Z,12.87
2019-03-04T02:06:10.862Z,12.91
2019-03-04T02:07:10.866Z,12.93
2019-03-04T02:08:10.841Z,12.93
2019-03-04T02:09:10.826Z,12.94
2019-03-04T02:10:10.829Z,12.95
2019-03-04T02:11:10.802Z,12.94
2019-03-04T02:12:10.790Z,12.90
2019-03-04T02:13:10.871Z,12.85
2019-03-04T02:14:10.773Z,12.90
2019-03-04T02:15:10.762Z,12.85
2019-03-04T02:16:10.786Z,12.86
2019-03-04T02:17:10.752Z,12.83
2019-03-04T02:18:10.722Z,12.85
2019-03-04T02:19:10.728Z,12.83
2019-03-04T02:20:10.706Z,12.85
2019-03-04T02:21:10.693Z,12.90
2019-03-04T02:22:10.681Z,12.93
2019-03-04T02:23:10.718Z,12.87
2019-03-04T02:24:10.675Z,12.85
2019-03-04T02:25:10.654Z,12.91
2019-03-04T02:26:10.637Z,12.87
2019-03-04T02:27:10.632Z,12.83
2019-03-04T02:28:10.615Z,12.91
2019-03-04T02:29:10.616Z,12.90
2019-03-04T02:30:10.640Z,12.83
2019-03-04T02:31:10.578Z,12.85
2019-03-04T02:32:10.568Z,12.83
2019-03-04T02:33:10.558Z,12.90
2019-03-04T02:34:10.541Z,12.90
2019-03-04T02:35:10.545Z,12.87
2019-03-04T02:36:10.569Z,12.94
2019-03-04T02:37:10.511Z,12.90
2019-03-04T02:38:10.535Z,12.94
2019-03-04T02:39:10.488Z,12.94
2019-03-04T02:40:10.477Z,12.86
2019-03-04T02:41:10.475Z,12.87
2019-03-04T02:42:10.498Z,12.91
2019-03-04T02:43:10.490Z,12.95
2019-03-04T02:44:10.427Z,12.90
2019-03-04T02:45:10.423Z,12.94
2019-03-04T02:46:10.415Z,12.97
2019-03-04T02:47:10.405Z,12.95
2019-03-04T02:48:10.441Z,12.91
2019-03-04T02:49:10.370Z,12.85
2019-03-04T02:50:10.396Z,12.91
2019-03-04T02:51:10.365Z,12.90
2019-03-04T02:52:10.342Z,12.87
2019-03-04T02:53:10.354Z,12.93
2019-03-04T02:54:10.347Z,12.95
2019-03-04T02:55:10.323Z,12.94
2019-03-04T02:56:10.297Z,12.91
2019-03-04T02:57:10.282Z,12.97
2019-03-04T02:58:10.268Z,12.93
2019-03-04T02:59:10.272Z,12.87
2019-03-04T03:00:10.270Z,12.93
2019-03-04T03:01:10.237Z,12.91
2019-03-04T03:02:10.231Z,12.94
2019-03-04T03:03:10.222Z,12.95
2019-03-04T03:04:10.237Z,12.83
2019-03-04T03:05:10.191Z,12.93
2019-03-04T03:06:10.211Z,12.90
2019-03-04T03:07:10.212Z,12.76
2019-03-04T03:08:10.160Z,12.80
2019-03-04T03:09:10.146Z,12.80
2019-03-04T03:10:10.139Z,12.76
2019-03-04T03:11:10.124Z,12.78
2019-03-04T03:12:10.138Z,12.73
2019-03-04T03:13:10.134Z,12.67
2019-03-04T03:14:10.100Z,12.72
2019-03-04T03:15:10.079Z,12.60
2019-03-04T03:16:10.077Z,12.68
2019-03-04T03:17:10.058Z,12.65
2019-03-04T03:18:10.078Z,12.67
2019-03-04T03:19:10.100Z,12.76
2019-03-04T03:20:10.020Z,12.70
2019-03-04T03:21:10.011Z,12.68
2019-03-04T03:22:10.004Z,12.67
2019-03-04T03:23:09.986Z,12.62
2019-03-04T03:24:09.996Z,12.72
2019-03-04T03:25:09.986Z,12.58
2019-03-04T03:26:09.954Z,12.60
2019-03-04T03:27:09.949Z,12.67
2019-03-04T03:28:09.926Z,12.57
2019-03-04T03:29:09.937Z,12.58
2019-03-04T03:30:09.923Z,12.60
2019-03-04T03:31:09.939Z,12.50
2019-03-04T03:32:09.886Z,12.62
2019-03-04T03:33:09.880Z,12.50
2019-03-04T03:34:09.870Z,12.60
2019-03-04T03:35:09.890Z,12.55
2019-03-04T03:36:09.848Z,12.61
2019-03-04T03:37:09.885Z,12.57
2019-03-04T03:38:09.862Z,12.58
2019-03-04T03:39:09.809Z,12.43
2019-03-04T03:40:09.797Z,12.53
2019-03-04T03:41:09.809Z,12.50
2019-03-04T03:42:09.770Z,12.50
2019-03-04T03:43:09.758Z,12.42
2019-03-04T03:44:09.807Z,12.46
2019-03-04T03:45:09.743Z,12.46
2019-03-04T03:46:09.724Z,12.42
2019-03-04T03:47:09.730Z,12.49
2019-03-04T03:48:09.733Z,12.47
2019-03-04T03:49:09.693Z,12.46
2019-03-04T03:50:09.725Z,12.32
2019-03-04T03:51:09.669Z,12.39
2019-03-04T03:52:09.658Z,12.39
2019-03-04T03:53:09.642Z,12.37
2019-03-04T03:54:09.658Z,12.42
2019-03-04T03:55:09.642Z,12.47
2019-03-04T03:56:09.697Z,12.43
2019-03-04T03:57:09.601Z,12.45
2019-03-04T03:58:09.615Z,12.42
2019-03-04T03:59:09.579Z,12.37
2019-03-04T04:00:09.573Z,12.39
2019-03-04T04:01:09.554Z,12.37
2019-03-04T04:02:09.548Z,12.39
2019-03-04T04:03:09.581Z,12.36
2019-03-04T04:04:09.541Z,12.45
2019-03-04T04:05:09.514Z,12.49
2019-03-04T04:06:09.510Z,12.49
2019-03-04T04:07:09.492Z,12.45
2019-03-04T04:08:09.479Z,12.47
2019-03-04T04:09:09.512Z,12.54
2019-03-04T04:10:09.451Z,12.53
2019-03-04T04:11:09.446Z,12.47
2019-03-04T04:12:09.430Z,12.55
2019-03-04T04:13:09.416Z,12.50
2019-03-04T04:14:09.409Z,12.42
2019-03-04T04:15:09.467Z,12.42
2019-03-04T04:16:09.388Z,12.40
2019-03-04T04:17:09.461Z,12.46
2019-03-04T04:18:09.392Z,12.42
2019-03-04T04:19:09.354Z,12.46
2019-03-04T04:20:09.340Z,12.42
2019-03-04T04:21:09.376Z,12.43
2019-03-04T04:22:09.320Z,12.46
2019-03-04T04:23:09.304Z,12.55
2019-03-04T04:24:09.300Z,12.50
2019-03-04T04:25:09.290Z,12.43
2019-03-04T04:26:09.290Z,12.46
2019-03-04T04:27:09.295Z,12.40
2019-03-04T04:28:09.247Z,12.35
2019-03-04T04:29:09.243Z,12.42
2019-03-04T04:30:09.226Z,12.42
2019-03-04T04:31:09.225Z,12.40
2019-03-04T04:32:09.221Z,12.36
2019-03-04T04:33:09.208Z,12.46
2019-03-04T04:34:09.183Z,12.43
2019-03-04T04:35:09.169Z,12.45
2019-03-04T04:36:09.156Z,12.42
2019-03-04T04:37:09.147Z,12.45
2019-03-04T04:38:09.153Z,12.39
2019-03-04T04:39:09.187Z,12.43
2019-03-04T04:40:09.115Z,12.42
2019-03-04T04:41:09.116Z,12.45
2019-03-04T04:42:09.087Z,12.49
2019-03-04T04:43:09.104Z,12.49
2019-03-04T04:44:09.080Z,12.58
2019-03-04T04:45:09.054Z,12.50
2019-03-04T04:46:09.068Z,12.60
2019-03-04T04:47:09.034Z,12.61
2019-03-04T04:48:09.021Z,12.58
2019-03-04T04:49:09.010Z,12.62
2019-03-04T04:50:09.020Z,12.60
2019-03-04T04:51:08.986Z,12.64
2019-03-04T04:52:09.009Z,12.62
2019-03-04T04:53:08.971Z,12.64
2019-03-04T04:54:08.954Z,12.72
2019-03-04T04:55:08.964Z,12.62
2019-03-04T04:56:08.952Z,12.68
2019-03-04T04:57:08.923Z,12.79
2019-03-04T04:58:08.951Z,12.85
2019-03-04T04:59:08.897Z,12.73
2019-03-04T05:00:08.884Z,12.87
2019-03-04T05:01:08.871Z,13.00
2019-03-04T05:02:08.875Z,12.98
2019-03-04T05:03:08.859Z,13.01
2019-03-04T05:04:08.881Z,13.13
2019-03-04T05:05:08.832Z,13.15
2019-03-04T05:06:08.834Z,13.30
2019-03-04T05:07:08.817Z,13.19
2019-03-04T05:08:08.796Z,13.11
2019-03-04T05:09:08.788Z,13.16
2019-03-04T05:10:08.792Z,13.25
2019-03-04T05:11:08.775Z,13.20
2019-03-04T05:12:08.764Z,13.18
2019-03-04T05:13:08.741Z,13.13
2019-03-04T05:14:08.723Z,13.25
2019-03-04T05:15:08.722Z,13.28
2019-03-04T05:16:08.700Z,13.25
2019-03-04T05:17:08.706Z,13.30
2019-03-04T05:18:08.686Z,13.19
2019-03-04T05:19:08.668Z,13.15
2019-03-04T05:20:08.672Z,13.15
2019-03-04T05:21:08.685Z,13.16
2019-03-04T05:22:08.640Z,13.16
2019-03-04T05:23:08.636Z,13.15
2019-03-04T05:24:08.614Z,13.11
2019-03-04T05:25:08.621Z,13.16
2019-03-04T05:26:08.592Z,13.09
2019-03-04T05:27:08.616Z,13.05
2019-03-04T05:28:08.567Z,13.13
2019-03-04T05:29:08.555Z,13.15
2019-03-04T05:30:08.547Z,13.09
2019-03-04T05:31:08.552Z,13.12
2019-03-04T05:32:08.523Z,13.11
2019-03-04T05:33:08.562Z,13.09
2019-03-04T05:34:08.501Z,12.95
2019-03-04T05:35:08.486Z,13.04
2019-03-04T05:36:08.476Z,13.01
2019-03-04T05:37:08.463Z,12.98
2019-03-04T05:38:08.455Z,12.97
2019-03-04T05:39:08.504Z,12.97
2019-03-04T05:40:08.430Z,12.97
2019-03-04T05:41:08.457Z,12.86
2019-03-04T05:42:08.414Z,12.91
2019-03-04T05:43:08.393Z,12.95
2019-03-04T05:44:08.413Z,12.90
2019-03-04T05:45:08.432Z,12.85
2019-03-04T05:46:08.363Z,12.85
2019-03-04T05:47:08.355Z,12.85
2019-03-04T05:48:16.054Z,12.85
2019-03-04T05:49:17.220Z,12.87
2019-03-04T05:50:08.336Z,12.87
2019-03-04T05:51:17.291Z,12.80
2019-03-04T05:52:08.365Z,12.86
2019-03-04T05:53:15.982Z,12.75
2019-03-04T05:54:08.344Z,12.82
2019-03-04T05:55:18.303Z,12.75
2019-03-04T05:57:22.090Z,12.82
2019-03-04T05:59:35.980Z,12.80
2019-03-04T06:00:35.910Z,12.76
2019-03-04T06:01:35.884Z,12.85
2019-03-04T06:02:35.858Z,12.75
2019-03-04T06:03:35.902Z,12.78
2019-03-04T06:04:35.875Z,12.82
2019-03-04T06:05:35.861Z,12.82
2019-03-04T06:06:44.357Z,12.61
2019-03-04T06:07:35.763Z,12.58
2019-03-04T06:08:35.762Z,12.57
2019-03-04T06:09:35.746Z,12.46
2019-03-04T06:10:35.741Z,12.42
2019-03-04T06:11:35.736Z,12.29
2019-03-04T06:12:35.724Z,12.31
2019-03-04T06:13:35.701Z,12.32
2019-03-04T06:14:35.706Z,12.21
2019-03-04T06:15:35.672Z,12.24
2019-03-04T06:16:35.661Z,12.18
2019-03-04T06:17:35.670Z,12.21
2019-03-04T06:18:35.639Z,12.18
2019-03-04T06:19:35.635Z,12.18
2019-03-04T06:20:35.621Z,12.18
2019-03-04T06:21:35.615Z,12.25
2019-03-04T06:22:35.609Z,12.20
2019-03-04T06:23:35.601Z,12.22
2019-03-04T06:24:35.580Z,12.24
2019-03-04T06:25:35.571Z,12.35
2019-03-04T06:26:35.557Z,12.35
2019-03-04T06:27:35.550Z,12.32
2019-03-04T06:28:35.546Z,12.35
2019-03-04T06:29:35.521Z,12.24
2019-03-04T06:30:35.504Z,12.28
2019-03-04T06:31:35.493Z,12.27
2019-03-04T06:32:35.487Z,12.28
2019-03-04T06:33:35.477Z,12.29
2019-03-04T06:34:35.492Z,12.20
2019-03-04T06:35:35.458Z,12.29
2019-03-04T06:36:35.446Z,12.29
2019-03-04T06:37:35.429Z,12.29
2019-03-04T06:38:35.427Z,12.29
2019-03-04T06:39:35.403Z,12.28
2019-03-04T06:40:35.407Z,12.36
2019-03-04T06:41:35.381Z,12.31
2019-03-04T06:42:35.368Z,12.29
2019-03-04T06:43:35.365Z,12.32
2019-03-04T06:44:35.349Z,12.29
2019-03-04T06:45:35.352Z,12.25
2019-03-04T06:46:35.327Z,12.22
2019-03-04T06:47:35.313Z,12.20
2019-03-04T06:48:35.366Z,12.31
2019-03-04T06:49:35.296Z,12.32
2019-03-04T06:50:35.285Z,12.32
2019-03-04T06:51:35.287Z,12.24
2019-03-04T06:52:35.261Z,12.27
2019-03-04T06:53:35.249Z,12.15
2019-03-04T06:54:35.264Z,12.25
2019-03-04T06:55:35.228Z,12.22
2019-03-04T06:56:35.239Z,12.27
2019-03-04T06:57:35.228Z,12.21
2019-03-04T06:58:35.189Z,12.21
2019-03-04T06:59:35.179Z,12.18
2019-03-04T07:00:35.202Z,12.20
2019-03-04T07:01:35.179Z,12.22
2019-03-04T07:02:35.160Z,12.20
2019-03-04T07:03:35.132Z,12.20
2019-03-04T07:04:35.126Z,12.17
2019-03-04T07:05:35.126Z,12.04
2019-03-04T07:06:35.102Z,12.18
2019-03-04T07:07:35.099Z,12.17
2019-03-04T07:08:35.075Z,12.15
2019-03-04T07:09:35.064Z,12.02
2019-03-04T07:10:35.055Z,12.04
2019-03-04T07:11:35.051Z,12.00
2019-03-04T07:12:35.048Z,12.00
2019-03-04T07:13:35.031Z,11.99
2019-03-04T07:14:35.013Z,11.84
2019-03-04T07:15:35.001Z,11.84
2019-03-04T07:16:35.018Z,11.80
2019-03-04T07:17:34.986Z,11.77
2019-03-04T07:18:34.986Z,11.77
2019-03-04T07:19:34.960Z,11.73
2019-03-04T07:20:34.944Z,11.73
2019-03-04T07:21:34.936Z,11.72
2019-03-04T07:22:34.932Z,11.65
2019-03-04T07:23:34.908Z,11.63
2019-03-04T07:24:34.904Z,11.52
2019-03-04T07:25:34.890Z,11.59
2019-03-04T07:26:34.887Z,11.59
2019-03-04T07:27:34.881Z,11.50
2019-03-04T07:28:34.856Z,11.50
2019-03-04T07:29:34.841Z,11.45
2019-03-04T07:30:34.830Z,11.15
2019-03-04T07:31:34.822Z,10.56
2019-03-04T07:32:34.809Z,9.94
2019-03-04T07:33:34.811Z,8.78
2019-03-04T07:34:34.785Z,8.45
2019-03-04T07:35:34.777Z,8.03
2019-03-04T07:36:34.762Z,7.97
2019-03-04T07:37:34.764Z,7.87
2019-03-04T07:38:34.745Z,7.79
2019-03-04T07:39:34.781Z,7.83
2019-03-04T07:40:34.718Z,7.72
2019-03-04T07:41:34.724Z,7.63
2019-03-04T07:42:34.707Z,7.70
2019-03-04T07:43:34.685Z,7.66
2019-03-04T07:44:34.678Z,7.66
2019-03-04T07:45:34.690Z,7.66
2019-03-04T07:46:34.664Z,7.69
2019-03-04T07:47:34.641Z,7.76
2019-03-04T07:48:34.630Z,7.61
2019-03-04T07:49:34.617Z,7.69
2019-03-04T07:50:34.611Z,7.69
2019-03-04T07:51:34.609Z,7.63
2019-03-04T07:52:34.607Z,7.73
2019-03-04T07:53:34.582Z,7.63
2019-03-04T07:54:34.563Z,7.79
2019-03-04T07:55:34.549Z,7.75
2019-03-04T07:56:34.537Z,7.91
2019-03-04T07:57:34.544Z,7.88
2019-03-04T07:58:34.525Z,7.88
2019-03-04T07:59:34.511Z,7.87
2019-03-04T08:00:34.502Z,7.95
2019-03-04T08:01:34.487Z,7.95
2019-03-04T08:02:34.481Z,7.91
2019-03-04T08:03:34.482Z,7.93
2019-03-04T08:04:34.448Z,7.95
2019-03-04T08:05:34.439Z,7.97
2019-03-04T08:06:34.425Z,8.01
2019-03-04T08:07:34.414Z,8.09
2019-03-04T08:08:34.413Z,8.00
2019-03-04T08:09:34.414Z,8.00
2019-03-04T08:10:34.403Z,8.10
2019-03-04T08:11:34.380Z,8.08
2019-03-04T08:12:34.367Z,8.12
2019-03-04T08:13:34.349Z,8.15
2019-03-04T08:14:34.339Z,8.05
2019-03-04T08:15:34.345Z,8.10
2019-03-04T08:16:36.095Z,8.13
2019-03-04T08:17:34.310Z,8.20
2019-03-04T08:18:34.294Z,8.20
2019-03-04T08:19:34.294Z,8.18
2019-03-04T08:20:34.272Z,8.19
2019-03-04T08:21:34.270Z,8.18
2019-03-04T08:22:34.252Z,8.16
2019-03-04T08:23:34.237Z,8.19
2019-03-04T08:24:34.226Z,8.24
2019-03-04T08:25:34.218Z,8.31
2019-03-04T08:26:34.220Z,8.44
2019-03-04T08:27:34.193Z,8.44
2019-03-04T08:28:34.184Z,8.45
2019-03-04T08:29:34.173Z,8.44
2019-03-04T08:30:34.159Z,8.69
2019-03-04T08:31:34.150Z,8.91
2019-03-04T08:32:34.160Z,9.23
2019-03-04T08:33:34.121Z,9.37
2019-03-04T08:34:34.112Z,9.51
2019-03-04T08:35:34.104Z,9.59
2019-03-04T08:36:34.094Z,9.68
2019-03-04T08:37:34.096Z,9.91
2019-03-04T08:38:34.090Z,9.89
2019-03-04T08:39:34.090Z,9.87
2019-03-04T08:40:34.054Z,9.77
2019-03-04T08:41:34.040Z,9.91
2019-03-04T08:42:34.059Z,10.02
2019-03-04T08:43:34.059Z,10.19
2019-03-04T08:44:34.012Z,10.05
2019-03-04T08:45:33.997Z,9.94
2019-03-04T08:46:33.999Z,9.84
2019-03-04T08:47:33.970Z,9.86
2019-03-04T08:48:33.962Z,9.83
2019-03-04T08:49:33.964Z,9.87
2019-03-04T08:50:33.932Z,9.80
2019-03-04T08:51:33.923Z,9.80
2019-03-04T08:52:34.041Z,9.82
2019-03-04T08:53:33.901Z,9.66
2019-03-04T08:54:33.888Z,9.62
2019-03-04T08:55:33.899Z,9.64
2019-03-04T08:56:33.878Z,9.61
2019-03-04T08:57:33.857Z,9.50
2019-03-04T08:58:34.462Z,9.47
2019-03-04T08:59:33.845Z,9.43
2019-03-04T09:00:33.911Z,9.34
2019-03-04T09:01:33.829Z,9.40
2019-03-04T09:02:33.798Z,9.34
2019-03-04T09:03:33.804Z,9.32
2019-03-04T09:04:33.790Z,9.32
2019-03-04T09:05:33.765Z,9.28
2019-03-04T09:06:33.759Z,9.34
2019-03-04T09:07:33.758Z,9.43
2019-03-04T09:08:33.733Z,9.48
2019-03-04T09:09:33.732Z,9.51
2019-03-04T09:10:33.732Z,9.48
2019-03-04T09:11:33.701Z,9.54
2019-03-04T09:12:35.865Z,9.51
2019-03-04T09:13:33.693Z,9.41
2019-03-04T09:14:33.663Z,9.47
2019-03-04T09:15:33.668Z,9.41
2019-03-04T09:16:33.641Z,9.36
2019-03-04T09:17:33.634Z,9.28
2019-03-04T09:18:33.643Z,9.34
2019-03-04T09:19:33.615Z,9.39
2019-03-04T09:20:33.603Z,9.44
2019-03-04T09:21:33.600Z,9.48
2019-03-04T09:22:33.578Z,9.48
2019-03-04T09:23:33.563Z,9.44
2019-03-04T09:24:33.567Z,9.44
2019-03-04T09:25:33.542Z,9.44
2019-03-04T09:26:33.529Z,9.47
2019-03-04T09:27:33.530Z,9.59
2019-03-04T09:28:33.519Z,9.58
2019-03-04T09:29:33.498Z,9.68
2019-03-04T09:30:33.504Z,9.65
2019-03-04T09:31:33.472Z,9.66
2019-03-04T09:32:33.465Z,9.73
2019-03-04T09:33:33.452Z,9.89
2019-03-04T09:34:33.442Z,9.89
2019-03-04T09:35:33.443Z,10.01
2019-03-04T09:36:33.445Z,9.95
2019-03-04T09:37:33.408Z,10.16
2019-03-04T09:38:33.435Z,10.05
2019-03-04T09:39:33.383Z,10.13
2019-03-04T09:40:33.373Z,10.15
2019-03-04T09:41:33.365Z,10.20
2019-03-04T09:42:33.370Z,10.35
2019-03-04T09:43:33.340Z,10.42
2019-03-04T09:44:33.356Z,10.60
2019-03-04T09:45:38.750Z,10.61
2019-03-04T09:46:34.308Z,10.67
2019-03-04T09:47:33.310Z,10.61
2019-03-04T09:48:33.282Z,10.67
2019-03-04T09:49:33.273Z,10.67
2019-03-04T09:50:33.261Z,10.64
2019-03-04T09:51:33.258Z,10.60
2019-03-04T09:52:33.238Z,10.59
2019-03-04T09:53:39.566Z,10.51
2019-03-04T09:54:34.216Z,10.63
2019-03-04T09:55:33.205Z,10.53
2019-03-04T09:56:33.193Z,10.54
2019-03-04T09:57:33.190Z,10.59
2019-03-04T09:58:33.173Z,10.57
2019-03-04T09:59:33.175Z,10.60
2019-03-04T10:00:33.148Z,10.48
2019-03-04T10:01:33.138Z,10.46
2019-03-04T10:02:33.127Z,10.46
2019-03-04T10:03:33.118Z,10.42
2019-03-04T10:04:33.115Z,10.40
2019-03-04T10:05:33.120Z,10.42
2019-03-04T10:06:33.084Z,10.33
2019-03-04T10:07:33.072Z,10.23
2019-03-04T10:08:33.204Z,10.17
2019-03-04T10:09:33.053Z,10.17
2019-03-04T10:10:33.055Z,10.20
2019-03-04T10:11:33.056Z,10.10
2019-03-04T10:12:33.019Z,10.05
2019-03-04T10:13:33.007Z,10.01
2019-03-04T10:14:32.999Z,9.74
2019-03-04T10:15:32.981Z,9.72
2019-03-04T10:16:32.995Z,9.18
2019-03-04T10:17:32.962Z,8.64
2019-03-04T10:18:32.954Z,8.03
2019-03-04T10:19:32.935Z,7.63
2019-03-04T10:20:32.924Z,7.45
2019-03-04T10:21:32.929Z,7.35
2019-03-04T10:22:32.903Z,7.38
2019-03-04T10:23:32.897Z,7.47
2019-03-04T10:24:32.892Z,7.47
2019-03-04T10:25:32.869Z,7.48
2019-03-04T10:26:32.864Z,7.58
2019-03-04T10:27:32.861Z,7.57
2019-03-04T10:28:32.839Z,7.50
2019-03-04T10:29:32.827Z,7.36
2019-03-04T10:30:32.842Z,7.33
2019-03-04T10:31:32.811Z,7.38
2019-03-04T10:32:32.803Z,7.31
2019-03-04T10:33:32.787Z,7.24
2019-03-04T10:34:32.772Z,7.29
2019-03-04T10:35:32.763Z,7.25
2019-03-04T10:36:32.791Z,7.29
2019-03-04T10:37:32.753Z,7.23
2019-03-04T10:38:32.734Z,7.24
2019-03-04T10:39:32.736Z,7.24
2019-03-04T10:40:32.709Z,7.20
2019-03-04T10:41:32.694Z,7.17
2019-03-04T10:42:32.719Z,7.20
2019-03-04T10:43:32.691Z,7.18
2019-03-04T10:44:37.536Z,7.15
2019-03-04T10:45:33.690Z,7.31
2019-03-04T10:46:32.640Z,7.39
2019-03-04T10:47:32.627Z,7.33
2019-03-04T10:48:32.629Z,7.31
2019-03-04T10:49:32.605Z,7.28
2019-03-04T10:50:32.614Z,7.29
2019-03-04T10:51:32.577Z,7.24
2019-03-04T10:52:32.575Z,7.25
2019-03-04T10:53:32.554Z,7.15
2019-03-04T10:54:32.600Z,7.20
2019-03-04T10:55:41.667Z,7.14
2019-03-04T10:56:33.535Z,7.31
2019-03-04T10:57:32.516Z,7.38
2019-03-04T10:58:32.507Z,7.32
2019-03-04T10:59:32.513Z,7.32
2019-03-04T11:00:32.477Z,7.33
2019-03-04T11:01:32.467Z,7.47
2019-03-04T11:02:32.453Z,7.47
2019-03-04T11:03:32.451Z,7.50
2019-03-04T11:04:32.440Z,7.56
2019-03-04T11:05:32.440Z,7.63
2019-03-04T11:06:32.411Z,7.73
2019-03-04T11:07:32.402Z,7.83
2019-03-04T11:08:32.389Z,8.03
2019-03-04T11:09:32.380Z,7.87
2019-03-04T11:10:32.372Z,7.72
2019-03-04T11:11:32.372Z,7.61
2019-03-04T11:12:32.355Z,7.66
2019-03-04T11:13:32.340Z,7.57
2019-03-04T11:14:32.330Z,7.50
2019-03-04T11:15:32.349Z,7.43
2019-03-04T11:16:32.348Z,7.40
2019-03-04T11:17:32.300Z,7.42
2019-03-04T11:18:32.289Z,7.51
2019-03-04T11:19:32.264Z,7.61
2019-03-04T11:20:32.258Z,7.53
2019-03-04T11:21:32.288Z,7.53
2019-03-04T11:22:32.254Z,7.67
2019-03-04T11:23:32.225Z,7.61
2019-03-04T11:24:32.216Z,7.51
2019-03-04T11:25:32.197Z,7.43
2019-03-04T11:26:32.184Z,7.40
2019-03-04T11:27:32.174Z,7.40
2019-03-04T11:28:32.182Z,7.48
2019-03-04T11:29:32.158Z,7.45
2019-03-04T11:30:32.140Z,7.45
2019-03-04T11:31:32.127Z,7.45
2019-03-04T11:32:32.116Z,7.39
2019-03-04T11:33:32.105Z,7.45
2019-03-04T11:34:32.118Z,7.48
2019-03-04T11:35:32.089Z,7.43
2019-03-04T11:36:32.075Z,7.47
2019-03-04T11:37:32.065Z,7.57
2019-03-04T11:38:32.050Z,7.67
2019-03-04T11:39:32.038Z,7.69
2019-03-04T11:40:32.045Z,7.72
2019-03-04T11:41:32.024Z,7.77
2019-03-04T11:42:32.011Z,7.69
2019-03-04T11:43:32.016Z,7.69
2019-03-04T11:44:31.983Z,7.67
2019-03-04T11:45:31.990Z,7.66
2019-03-04T11:46:31.961Z,7.69
2019-03-04T11:47:31.947Z,7.51
2019-03-04T11:48:31.949Z,7.60
2019-03-04T11:49:31.930Z,7.63
2019-03-04T11:50:31.919Z,7.54
2019-03-04T11:51:31.921Z,7.54
2019-03-04T11:52:31.894Z,7.48
2019-03-04T11:53:31.882Z,7.50
2019-03-04T11:54:31.922Z,7.50
2019-03-04T11:55:31.863Z,7.43
2019-03-04T11:56:31.855Z,7.28
2019-03-04T11:57:31.850Z,7.33
2019-03-04T11:58:31.826Z,7.29
2019-03-04T11:59:31.813Z,7.35
2019-03-04T12:00:31.804Z,7.33
2019-03-04T12:01:31.789Z,7.58
2019-03-04T12:02:38.681Z,7.76
2019-03-04T12:03:32.787Z,8.18
2019-03-04T12:04:31.764Z,8.30
2019-03-04T12:05:31.763Z,8.55
2019-03-04T12:06:31.743Z,8.55
2019-03-04T12:07:31.935Z,8.73
2019-03-04T12:08:31.809Z,8.79
2019-03-04T12:09:31.724Z,8.79
2019-03-04T12:10:31.713Z,8.74
2019-03-04T12:11:38.148Z,8.84
2019-03-04T12:12:32.691Z,8.99
2019-03-04T12:13:31.698Z,9.03
2019-03-04T12:14:31.707Z,9.18
2019-03-04T12:15:31.636Z,9.13
2019-03-04T12:16:31.655Z,9.46
2019-03-04T12:17:31.627Z,9.50
2019-03-04T12:18:31.644Z,9.26
2019-03-04T12:19:31.645Z,9.21
2019-03-04T12:20:31.621Z,8.82
2019-03-04T12:21:31.650Z,8.82
2019-03-04T12:22:31.574Z,8.73
2019-03-04T12:23:31.586Z,8.73
2019-03-04T12:24:31.578Z,8.52
2019-03-04T12:25:31.565Z,8.30
2019-03-04T12:26:31.570Z,8.31
2019-03-04T12:27:31.521Z,8.34
2019-03-04T12:28:31.512Z,8.36
2019-03-04T12:29:31.512Z,8.37
2019-03-04T12:30:31.504Z,8.41
2019-03-04T12:31:31.493Z,8.33
2019-03-04T12:32:31.450Z,8.36
2019-03-04T12:33:31.496Z,8.31
2019-03-04T12:34:31.469Z,8.28
2019-03-04T12:35:31.482Z,8.15
2019-03-04T12:36:31.431Z,8.15
2019-03-04T12:37:31.432Z,8.19
2019-03-04T12:38:31.409Z,8.16
2019-03-04T12:39:31.366Z,8.23
2019-03-04T12:40:31.426Z,8.24
2019-03-04T12:41:31.367Z,8.15
2019-03-04T12:42:31.399Z,8.19
2019-03-04T12:43:31.384Z,8.19
2019-03-04T12:44:31.338Z,8.12
2019-03-04T12:45:34.717Z,8.16
2019-03-04T12:46:31.299Z,8.13
2019-03-04T12:47:31.335Z,8.18
2019-03-04T12:48:31.313Z,8.16
2019-03-04T12:49:31.278Z,8.19
2019-03-04T12:50:31.300Z,8.24
2019-03-04T12:51:31.298Z,8.30
2019-03-04T12:52:31.253Z,8.23
2019-03-04T12:53:37.283Z,8.24
2019-03-04T12:54:32.246Z,8.30
2019-03-04T12:55:31.233Z,8.24
2019-03-04T12:56:31.195Z,8.36
2019-03-04T12:57:31.189Z,8.19
2019-03-04T12:58:31.194Z,8.26
2019-03-04T12:59:31.144Z,8.30
2019-03-04T13:00:31.161Z,8.37
2019-03-04T13:01:31.159Z,8.31
2019-03-04T13:02:31.122Z,8.37
2019-03-04T13:03:31.159Z,8.41
2019-03-04T13:04:31.112Z,8.36